Time;durP1;ratioP1;P1;durP2;ratioP2;P2;SDS_P1;SDS_P2;PMS_P1;PMS_P2;Temp;Humidity;BMP_temperature;BMP_pressure;BME280_temperature;BME280_humidity;BME280_pressure;Samples;Min_cycle;Max_cycle;Signal;HPM_P1;HPM_P2
2023/03/04 00:01:31;;;;;;;2.78;1.80;;;;;;;2.30;100.00;101069.97;4986336;28;20045;-72
2023/03/04 00:03:56;;;;;;;2.33;1.90;;;;;;;2.27;100.00;101068.97;4985883;28;20042;-72
2023/03/04 00:06:22;;;;;;;1.58;1.33;;;;;;;2.26;100.00;101080.25;4982817;28;20038;-73
2023/03/04 00:08:47;;;;;;;2.28;1.85;;;;;;;2.26;100.00;101083.72;4985944;28;20039;-72
2023/03/04 00:11:13;;;;;;;2.10;1.90;;;;;;;2.28;100.00;101079.47;4984142;28;20030;-72
2023/03/04 00:13:38;;;;;;;2.33;1.90;;;;;;;2.34;100.00;101074.47;4982415;28;20393;-73
2023/03/04 00:16:03;;;;;;;2.00;1.63;;;;;;;2.27;100.00;101063.78;4985741;28;20485;-73
2023/03/04 00:18:29;;;;;;;2.10;1.90;;;;;;;2.24;100.00;101071.47;4981927;28;20042;-73
2023/03/04 00:20:54;;;;;;;2.20;1.83;;;;;;;2.25;100.00;101068.03;4985794;28;20030;-73
2023/03/04 00:23:19;;;;;;;1.77;1.50;;;;;;;2.30;100.00;101061.28;4985846;28;20041;-73
2023/03/04 00:25:45;;;;;;;2.30;1.83;;;;;;;2.28;100.00;101058.63;4985831;28;20038;-73
2023/03/04 00:28:10;;;;;;;2.00;1.60;;;;;;;2.29;100.00;101054.31;4982042;28;20035;-72
2023/03/04 00:30:35;;;;;;;1.95;1.60;;;;;;;2.33;100.00;101069.19;4985621;28;20042;-72
2023/03/04 00:33:01;;;;;;;1.98;1.60;;;;;;;2.31;100.00;101063.06;4985621;28;20038;-73
2023/03/04 00:35:26;;;;;;;1.70;1.50;;;;;;;2.34;100.00;101063.19;4982171;28;20070;-73
2023/03/04 00:37:52;;;;;;;2.20;1.73;;;;;;;2.23;100.00;101057.59;4985219;28;20034;-73
2023/03/04 00:40:17;;;;;;;2.58;1.90;;;;;;;2.21;100.00;101055.75;4985590;28;20400;-73
2023/03/04 00:42:43;;;;;;;2.40;1.70;;;;;;;2.21;100.00;101055.75;4988293;28;20509;-72
2023/03/04 00:45:08;;;;;;;2.00;1.60;;;;;;;2.08;100.00;101054.41;4982599;28;20049;-73
2023/03/04 00:47:34;;;;;;;2.13;1.70;;;;;;;2.13;100.00;101051.16;4990254;28;20030;-73
2023/03/04 00:49:59;;;;;;;1.33;1.23;;;;;;;2.23;100.00;101043.66;4981128;28;20092;-73
2023/03/04 00:52:24;;;;;;;1.98;1.67;;;;;;;2.22;100.00;101032.34;4986550;28;20385;-73
2023/03/04 00:54:50;;;;;;;2.03;1.60;;;;;;;2.22;100.00;101021.94;4982691;28;20410;-73
2023/03/04 00:57:15;;;;;;;2.28;2.00;;;;;;;2.25;100.00;101023.75;4985032;28;20496;-73
2023/03/04 00:59:42;;;;;;;2.50;1.75;;;;;;;2.18;100.00;101020.94;4983832;28;20045;-72
2023/03/04 01:02:08;;;;;;;2.10;1.60;;;;;;;2.22;100.00;101027.13;4985843;28;20061;-72
2023/03/04 01:04:33;;;;;;;1.80;1.40;;;;;;;2.26;100.00;101020.34;4983815;28;20062;-73
2023/03/04 01:06:59;;;;;;;2.13;1.70;;;;;;;2.25;100.00;101022.03;4981642;28;20058;-73
2023/03/04 01:09:25;;;;;;;2.08;1.73;;;;;;;2.22;100.00;101010.63;4983106;28;20070;-72
2023/03/04 01:11:51;;;;;;;1.92;1.55;;;;;;;2.31;100.00;101003.16;4983077;28;20081;-73
2023/03/04 01:14:17;;;;;;;2.78;1.52;;;;;;;2.31;100.00;100990.13;4981667;28;20125;-72
2023/03/04 01:16:42;;;;;;;1.88;1.58;;;;;;;2.38;100.00;101002.53;4984645;28;20031;-73
2023/03/04 01:19:07;;;;;;;1.90;1.65;;;;;;;2.30;100.00;100990.94;4982453;28;20041;-72
2023/03/04 01:21:33;;;;;;;1.83;1.58;;;;;;;2.34;100.00;100985.91;4983572;28;20034;-73
2023/03/04 01:23:58;;;;;;;2.13;1.80;;;;;;;2.33;100.00;100991.06;4982117;28;20512;-73
2023/03/04 01:26:23;;;;;;;2.13;1.88;;;;;;;2.31;100.00;100985.81;4988127;28;20034;-73
2023/03/04 01:28:49;;;;;;;1.83;1.60;;;;;;;2.38;100.00;100977.38;4980060;28;20042;-72
2023/03/04 01:31:14;;;;;;;2.10;1.80;;;;;;;2.37;100.00;100966.91;4985460;28;20046;-72
2023/03/04 01:33:39;;;;;;;1.90;1.48;;;;;;;2.32;100.00;100974.53;4983555;28;20047;-72
2023/03/04 01:36:05;;;;;;;1.70;1.42;;;;;;;2.35;100.00;100964.22;4983472;28;20058;-73
2023/03/04 01:38:30;;;;;;;1.98;1.52;;;;;;;2.33;100.00;100962.41;4981822;28;20438;-72
2023/03/04 01:40:56;;;;;;;1.75;1.50;;;;;;;2.33;100.00;100962.41;4982380;28;20703;-72
2023/03/04 01:43:24;;;;;;;1.50;1.23;;;;;;;2.34;100.00;100948.56;4990780;28;20065;-73
2023/03/04 01:45:51;;;;;;;1.30;1.20;;;;;;;2.30;100.00;100957.09;4981046;28;20046;-73
2023/03/04 01:48:23;;;;;;;1.52;1.30;;;;;;;2.34;100.00;100949.44;4984230;28;20030;-73
2023/03/04 01:50:48;;;;;;;1.85;1.48;;;;;;;2.34;100.00;100940.75;4981864;28;20042;-73
2023/03/04 01:53:22;;;;;;;2.00;1.75;;;;;;;2.40;100.00;100927.91;4982241;28;20034;-73
2023/03/04 01:55:48;;;;;;;1.35;1.25;;;;;;;2.41;100.00;100930.59;4981017;28;20031;-72
2023/03/04 01:58:14;;;;;;;1.48;1.20;;;;;;;2.39;100.00;100936.56;4982192;28;20030;-73
2023/03/04 02:00:39;;;;;;;1.60;1.30;;;;;;;2.42;100.00;100921.03;4982502;28;20485;-73
2023/03/04 02:03:11;;;;;;;1.85;1.40;;;;;;;2.40;100.00;100918.38;4982984;28;20035;-72
2023/03/04 02:05:40;;;;;;;1.48;1.35;;;;;;;2.39;100.00;100923.56;4979602;28;20062;-72
2023/03/04 02:08:06;;;;;;;1.30;1.20;;;;;;;2.38;100.00;100930.50;4983417;28;20034;-73
2023/03/04 02:10:32;;;;;;;1.40;1.10;;;;;;;2.45;100.00;100923.75;4981553;28;20073;-73
2023/03/04 02:12:59;;;;;;;1.58;1.30;;;;;;;2.51;100.00;100926.53;4982893;28;20038;-72
2023/03/04 02:15:25;;;;;;;0.90;0.90;;;;;;;2.50;100.00;100935.22;4983256;28;20034;-72
2023/03/04 02:17:50;;;;;;;1.30;1.20;;;;;;;2.48;100.00;100920.34;4979911;28;20034;-72
2023/03/04 02:20:40;;;;;;;1.33;1.10;;;;;;;2.57;100.00;100921.56;4981606;28;20092;-73
2023/03/04 02:23:28;;;;;;;1.30;1.17;;;;;;;2.55;100.00;100922.34;4983476;28;20121;-73
2023/03/04 02:26:12;;;;;;;1.30;1.10;;;;;;;2.47;100.00;100916.88;4983568;28;20109;-73
2023/03/04 02:28:38;;;;;;;1.25;1.10;;;;;;;2.50;100.00;100909.16;4980964;28;20045;-72
2023/03/04 02:31:04;;;;;;;1.40;1.30;;;;;;;2.54;100.00;100916.25;4982338;28;20117;-73
2023/03/04 02:33:29;;;;;;;1.45;1.30;;;;;;;2.51;100.00;100920.44;4981608;28;20129;-73
2023/03/04 02:35:57;;;;;;;1.50;1.30;;;;;;;2.52;100.00;100917.91;4982689;28;20045;-72
2023/03/04 02:38:22;;;;;;;1.45;1.35;;;;;;;2.56;100.00;100909.34;4979885;28;20456;-73
2023/03/04 02:40:51;;;;;;;1.30;1.20;;;;;;;2.51;100.00;100905.69;4981683;28;20050;-73
2023/03/04 02:43:16;;;;;;;1.20;1.10;;;;;;;2.46;100.00;100902.06;4987930;28;20504;-72
2023/03/04 02:45:46;;;;;;;1.27;1.05;;;;;;;2.48;100.00;100910.81;4983584;28;20125;-73
2023/03/04 02:48:12;;;;;;;1.67;1.20;;;;;;;2.42;100.00;100900.22;4990295;28;20121;-73
2023/03/04 02:50:47;;;;;;;1.20;1.00;;;;;;;2.46;100.00;100899.44;4987039;28;20485;-73
2023/03/04 02:53:14;;;;;;;1.20;1.10;;;;;;;2.48;100.00;100905.59;4986250;28;20507;-73
2023/03/04 02:55:41;;;;;;;1.65;1.40;;;;;;;2.54;100.00;100900.63;4985685;28;20045;-73
2023/03/04 02:58:07;;;;;;;1.33;1.20;;;;;;;2.50;100.00;100895.25;4984693;28;20030;-73
2023/03/04 03:00:33;;;;;;;2.03;1.40;;;;;;;2.49;100.00;100902.19;4985913;28;20022;-73
2023/03/04 03:02:58;;;;;;;1.30;1.20;;;;;;;2.45;100.00;100900.28;4987792;28;20086;-73
2023/03/04 03:05:26;;;;;;;1.30;1.15;;;;;;;2.52;100.00;100897.06;4990541;28;20501;-73
2023/03/04 03:07:53;;;;;;;1.33;1.10;;;;;;;2.54;100.00;100890.19;4994274;28;20026;-73
2023/03/04 03:10:18;;;;;;;1.38;1.27;;;;;;;2.57;100.00;100884.19;4982463;28;20098;-73
2023/03/04 03:12:44;;;;;;;1.50;1.30;;;;;;;2.49;100.00;100891.75;4983314;28;20117;-73
2023/03/04 03:15:10;;;;;;;1.50;1.30;;;;;;;2.49;100.00;100898.66;4986772;28;20045;-73
2023/03/04 03:17:37;;;;;;;1.80;1.20;;;;;;;2.43;100.00;100896.75;4989523;28;20026;-72
2023/03/04 03:20:03;;;;;;;1.30;1.20;;;;;;;2.46;100.00;100885.53;4987207;28;20441;-73
2023/03/04 03:22:28;;;;;;;1.42;1.05;;;;;;;2.41;100.00;100893.19;4986501;28;20060;-73
2023/03/04 03:24:54;;;;;;;1.40;1.30;;;;;;;2.40;100.00;100887.13;4983546;28;20030;-73
2023/03/04 03:27:19;;;;;;;1.60;1.10;;;;;;;2.42;100.00;100884.56;4986488;28;20027;-73
2023/03/04 03:29:44;;;;;;;1.20;1.10;;;;;;;2.45;100.00;100883.78;4982079;28;20108;-73
2023/03/04 03:32:10;;;;;;;1.58;1.33;;;;;;;2.52;100.00;100901.41;4988061;28;20518;-73
2023/03/04 03:34:35;;;;;;;1.52;1.20;;;;;;;2.46;100.00;100911.59;4986255;28;20030;-72
2023/03/04 03:37:00;;;;;;;2.17;1.50;;;;;;;2.49;100.00;100883.94;4982267;28;20623;-73
2023/03/04 03:39:26;;;;;;;2.20;2.00;;;;;;;2.53;100.00;100887.53;4985733;28;20370;-72
2023/03/04 03:41:51;;;;;;;1.30;1.10;;;;;;;2.55;100.00;100889.34;4982843;28;20423;-72
2023/03/04 03:44:16;;;;;;;1.67;1.10;;;;;;;2.52;100.00;100891.84;4983726;28;20764;-73
2023/03/04 03:46:42;;;;;;;1.10;1.00;;;;;;;2.59;100.00;100914.69;4985640;28;20034;-73
2023/03/04 03:49:07;;;;;;;1.63;1.27;;;;;;;2.59;100.00;100909.47;4985913;28;20030;-74
2023/03/04 03:51:32;;;;;;;1.10;0.90;;;;;;;2.52;100.00;100898.78;4986268;28;20034;-73
2023/03/04 03:53:57;;;;;;;1.50;1.10;;;;;;;2.59;100.00;100891.22;4984888;28;20046;-73
2023/03/04 03:56:23;;;;;;;1.60;1.45;;;;;;;2.54;100.00;100890.19;4983709;28;20043;-73
2023/03/04 03:58:48;;;;;;;1.95;1.00;;;;;;;2.54;100.00;100890.19;4984817;28;20034;-73
2023/03/04 04:01:13;;;;;;;1.30;0.88;;;;;;;2.59;100.00;100883.41;4984846;28;20045;-72
2023/03/04 04:03:39;;;;;;;0.90;0.80;;;;;;;2.58;100.00;100881.63;4985056;28;20038;-73
2023/03/04 04:06:04;;;;;;;1.05;0.90;;;;;;;2.55;100.00;100884.13;4984586;28;20042;-73
2023/03/04 04:08:29;;;;;;;1.20;0.82;;;;;;;2.57;100.00;100874.66;4984689;28;20042;-73
2023/03/04 04:10:55;;;;;;;1.02;0.88;;;;;;;2.54;100.00;100877.16;4982080;28;20043;-72
2023/03/04 04:13:20;;;;;;;1.92;1.00;;;;;;;2.63;100.00;100889.59;4985567;28;20045;-72
2023/03/04 04:15:45;;;;;;;0.80;0.70;;;;;;;2.61;100.00;100876.50;4988003;28;20042;-73
2023/03/04 04:18:11;;;;;;;0.82;0.70;;;;;;;2.58;100.00;100885.94;4987264;28;20401;-73
2023/03/04 04:20:36;;;;;;;1.52;1.10;;;;;;;2.64;100.00;100881.78;4984274;28;20039;-73
2023/03/04 04:23:02;;;;;;;1.20;0.80;;;;;;;2.60;100.00;100879.94;4988674;28;20038;-72
2023/03/04 04:25:27;;;;;;;0.90;0.80;;;;;;;2.60;100.00;100874.75;4983884;28;20089;-72
2023/03/04 04:27:53;;;;;;;0.95;0.80;;;;;;;2.61;100.00;100875.63;4984285;28;20126;-73
2023/03/04 04:30:18;;;;;;;1.25;1.00;;;;;;;2.67;100.00;100874.91;4983445;28;20073;-73
2023/03/04 04:32:44;;;;;;;0.82;0.77;;;;;;;2.59;100.00;100866.84;4988030;28;20039;-73
2023/03/04 04:35:09;;;;;;;1.40;0.77;;;;;;;2.64;100.00;100871.38;5016451;22;20103;-76
2023/03/04 04:37:35;;;;;;;0.90;0.80;;;;;;;2.68;100.00;100872.38;5023540;28;20487;-76
2023/03/04 04:40:01;;;;;;;1.10;0.82;;;;;;;2.70;100.00;100877.63;5020718;28;20164;-76
2023/03/04 04:42:26;;;;;;;1.35;1.00;;;;;;;2.70;100.00;100872.41;5020851;28;20029;-76
2023/03/04 04:44:52;;;;;;;1.27;0.98;;;;;;;2.75;100.00;100863.91;5016275;28;20037;-76
2023/03/04 04:47:17;;;;;;;0.95;0.77;;;;;;;2.65;100.00;100869.69;5023864;28;20060;-76
2023/03/04 04:49:43;;;;;;;1.02;0.82;;;;;;;2.68;100.00;100872.38;5021432;28;20045;-76
2023/03/04 04:52:09;;;;;;;1.25;0.90;;;;;;;2.74;100.00;100867.34;5022751;28;20427;-76
2023/03/04 04:54:34;;;;;;;1.15;0.90;;;;;;;2.74;100.00;100856.91;5023961;28;20029;-76
2023/03/04 04:56:59;;;;;;;1.00;0.70;;;;;;;2.76;100.00;100856.97;5022713;28;20714;-76
2023/03/04 04:59:25;;;;;;;1.63;1.02;;;;;;;2.74;100.00;100850.81;5020879;28;20453;-76
2023/03/04 05:01:50;;;;;;;1.20;0.95;;;;;;;2.78;100.00;100844.88;5024023;28;20495;-77
2023/03/04 05:04:15;;;;;;;0.82;0.70;;;;;;;2.80;100.00;100845.78;5018577;28;20080;-76
2023/03/04 05:06:41;;;;;;;1.10;0.85;;;;;;;2.82;100.00;100854.53;5024053;28;20037;-76
2023/03/04 05:09:06;;;;;;;1.08;0.80;;;;;;;2.77;100.00;100850.91;5020483;28;20125;-76
2023/03/04 05:11:32;;;;;;;0.85;0.70;;;;;;;2.84;100.00;100858.09;5020208;28;20029;-76
2023/03/04 05:13:57;;;;;;;1.02;0.80;;;;;;;2.83;100.00;100851.13;5020698;28;20399;-76
2023/03/04 05:16:22;;;;;;;1.20;0.80;;;;;;;2.82;100.00;100841.50;5024215;28;20069;-76
2023/03/04 05:18:48;;;;;;;1.10;0.80;;;;;;;2.89;100.00;100840.00;5016212;28;20038;-76
2023/03/04 05:21:13;;;;;;;1.38;0.80;;;;;;;2.92;100.00;100838.34;5018667;28;20404;-76
2023/03/04 05:23:40;;;;;;;70.47;64.32;;;;;;;2.93;100.00;100836.63;5020525;28;20038;-76
2023/03/04 05:26:07;;;;;;;19.10;18.00;;;;;;;2.95;100.00;100835.81;5023391;28;20109;-77
2023/03/04 05:28:33;;;;;;;2.80;2.60;;;;;;;2.98;100.00;100835.03;5020780;28;20061;-76
2023/03/04 05:30:58;;;;;;;5.50;5.18;;;;;;;3.00;100.00;100839.44;5021987;28;20488;-76
2023/03/04 05:33:23;;;;;;;3.03;2.42;;;;;;;3.05;100.00;100827.44;5022077;28;20052;-76
2023/03/04 05:35:49;;;;;;;2.67;2.45;;;;;;;3.06;100.00;100823.97;5021596;28;20032;-76
2023/03/04 05:38:16;;;;;;;2.58;2.13;;;;;;;3.06;100.00;100823.97;5021128;28;20038;-76
2023/03/04 05:40:42;;;;;;;2.10;1.90;;;;;;;3.04;100.00;100830.91;5019539;28;20033;-76
2023/03/04 05:43:08;;;;;;;2.53;2.03;;;;;;;3.00;100.00;100822.94;5022277;28;20029;-76
2023/03/04 05:45:33;;;;;;;1.80;1.67;;;;;;;2.98;100.00;100815.03;5021580;28;20026;-76
2023/03/04 05:47:59;;;;;;;2.20;2.00;;;;;;;3.00;100.00;100828.16;5021932;28;20492;-76
2023/03/04 05:50:27;;;;;;;2.10;1.80;;;;;;;2.94;100.00;100812.34;5021300;28;20088;-76
2023/03/04 05:52:53;;;;;;;2.28;2.00;;;;;;;2.92;100.00;100817.50;5018547;28;20034;-76
2023/03/04 05:55:18;;;;;;;1.90;1.70;;;;;;;2.96;100.00;100821.97;5019752;28;20459;-76
2023/03/04 05:57:45;;;;;;;2.63;1.70;;;;;;;3.02;100.00;100816.91;5022312;28;20492;-76
2023/03/04 06:00:12;;;;;;;2.00;1.80;;;;;;;2.99;100.00;100827.25;5020511;28;20518;-76
2023/03/04 06:02:38;;;;;;;2.00;1.60;;;;;;;2.96;100.00;100813.25;5022975;28;20041;-76
2023/03/04 06:05:04;;;;;;;1.73;1.50;;;;;;;2.99;100.00;100818.56;5020128;28;20088;-76
2023/03/04 06:07:30;;;;;;;2.00;1.50;;;;;;;3.04;100.00;100812.63;5023027;28;20052;-77
2023/03/04 06:09:56;;;;;;;2.00;1.50;;;;;;;3.08;100.00;100817.09;5019467;28;20567;-76
2023/03/04 06:12:21;;;;;;;1.83;1.50;;;;;;;3.07;100.00;100817.06;5018237;28;20041;-76
2023/03/04 06:14:47;;;;;;;1.50;1.40;;;;;;;2.98;100.00;100808.97;5022988;28;20091;-76
2023/03/04 06:17:12;;;;;;;2.15;1.50;;;;;;;3.01;100.00;100815.16;5019424;28;20474;-76
2023/03/04 06:19:38;;;;;;;1.95;1.50;;;;;;;3.02;100.00;100818.66;5015176;28;20053;-76
2023/03/04 06:22:04;;;;;;;1.42;1.33;;;;;;;2.97;100.00;100818.50;5016388;28;20030;-76
2023/03/04 06:24:29;;;;;;;1.55;1.33;;;;;;;2.99;100.00;100815.97;5022819;28;20499;-76
2023/03/04 06:26:55;;;;;;;1.77;1.30;;;;;;;3.02;100.00;100821.25;5019778;28;20022;-76
2023/03/04 06:29:20;;;;;;;1.20;1.10;;;;;;;2.99;100.00;100824.66;5022629;28;20522;-77
2023/03/04 06:31:45;;;;;;;1.67;1.30;;;;;;;3.06;100.00;100818.75;5019138;28;20042;-76
2023/03/04 06:34:10;;;;;;;1.23;1.10;;;;;;;3.04;100.00;100809.16;5013225;28;20038;-76
2023/03/04 06:36:36;;;;;;;1.15;1.00;;;;;;;3.12;100.00;100819.78;5013728;28;20088;-76
2023/03/04 06:39:03;;;;;;;1.40;1.10;;;;;;;3.08;100.00;100827.50;5021964;28;20033;-77
2023/03/04 06:41:29;;;;;;;1.20;1.00;;;;;;;3.06;100.00;100828.31;5019409;28;20037;-76
2023/03/04 06:43:54;;;;;;;0.90;0.90;;;;;;;3.07;100.00;100823.16;5021968;28;20626;-76
2023/03/04 06:46:20;;;;;;;1.05;0.95;;;;;;;3.15;100.00;100833.81;5020331;28;20034;-76
2023/03/04 06:48:45;;;;;;;1.17;1.08;;;;;;;3.19;100.00;100826.94;5021494;28;20040;-76
2023/03/04 06:51:11;;;;;;;1.10;1.00;;;;;;;3.19;100.00;100820.00;5020529;28;20116;-76
2023/03/04 06:53:37;;;;;;;1.10;0.98;;;;;;;3.14;100.00;100823.31;5020975;28;20038;-76
2023/03/04 06:56:03;;;;;;;0.88;0.88;;;;;;;3.17;100.00;100826.91;5020030;28;20029;-76
2023/03/04 06:58:28;;;;;;;1.77;1.00;;;;;;;3.11;100.00;100831.06;5020844;28;20042;-76
2023/03/04 07:00:53;;;;;;;0.90;0.90;;;;;;;3.13;100.00;100817.22;5020904;28;20041;-76
2023/03/04 07:03:19;;;;;;;0.80;0.80;;;;;;;3.19;100.00;100817.38;5019998;28;20044;-76
2023/03/04 07:05:45;;;;;;;1.05;0.90;;;;;;;3.24;100.00;100815.78;5019806;28;20040;-76
2023/03/04 07:08:10;;;;;;;0.88;0.80;;;;;;;3.26;100.00;100816.72;5021086;28;20033;-77
2023/03/04 07:10:35;;;;;;;0.80;0.80;;;;;;;3.29;100.00;100819.41;5018684;28;20096;-77
2023/03/04 07:13:01;;;;;;;0.70;0.70;;;;;;;3.24;100.00;100822.75;5016546;28;20041;-76
2023/03/04 07:15:28;;;;;;;0.93;0.70;;;;;;;3.30;100.00;100822.91;5013170;28;20061;-76
2023/03/04 07:17:53;;;;;;;1.00;0.80;;;;;;;3.31;100.00;100816.88;5018173;28;20042;-76
2023/03/04 07:20:19;;;;;;;0.70;0.70;;;;;;;3.40;100.00;100818.84;5019653;28;20144;-76
2023/03/04 07:22:44;;;;;;;0.80;0.70;;;;;;;3.37;100.00;100809.19;5021601;28;20033;-76
2023/03/04 07:25:09;;;;;;;0.70;0.65;;;;;;;3.33;100.00;100814.28;5021834;28;20087;-76
2023/03/04 07:27:37;;;;;;;0.70;0.70;;;;;;;3.27;100.00;100812.38;5019729;28;20111;-77
2023/03/04 07:30:03;;;;;;;0.73;0.70;;;;;;;3.38;100.00;100810.97;5024215;28;20025;-76
2023/03/04 07:32:29;;;;;;;0.60;0.60;;;;;;;3.41;100.00;100813.66;5022493;28;20045;-76
2023/03/04 07:34:54;;;;;;;0.50;0.50;;;;;;;3.51;100.00;100813.09;5024182;28;20060;-76
2023/03/04 07:37:19;;;;;;;0.73;0.70;;;;;;;3.47;100.00;100816.44;5025967;28;20407;-77
2023/03/04 07:39:44;;;;;;;0.50;0.50;;;;;;;3.49;100.00;100821.72;5022173;28;20492;-77
2023/03/04 07:42:10;;;;;;;1.02;0.90;;;;;;;3.44;100.00;100816.34;5025887;28;20053;-76
2023/03/04 07:44:39;;;;;;;0.60;0.60;;;;;;;3.51;100.00;100820.00;5018329;28;20045;-77
2023/03/04 07:47:04;;;;;;;0.80;0.80;;;;;;;3.44;100.00;100826.78;5022425;28;20029;-76
2023/03/04 07:49:29;;;;;;;0.85;0.80;;;;;;;3.42;100.00;100825.84;5025142;28;20446;-77
2023/03/04 07:51:55;;;;;;;0.85;0.75;;;;;;;3.33;100.00;100825.63;5022599;28;20688;-76
2023/03/04 07:54:20;;;;;;;0.73;0.73;;;;;;;3.39;100.00;100823.19;5022040;28;20507;-76
2023/03/04 07:56:45;;;;;;;0.80;0.80;;;;;;;3.44;100.00;100825.91;5024974;28;20029;-77
2023/03/04 07:59:11;;;;;;;0.70;0.70;;;;;;;3.40;100.00;100824.06;5022370;28;20045;-76
2023/03/04 08:01:37;;;;;;;0.65;0.65;;;;;;;3.47;100.00;100811.22;5024744;28;20029;-77
2023/03/04 08:04:04;;;;;;;0.70;0.70;;;;;;;3.49;100.00;100809.53;5022609;28;20034;-76
2023/03/04 08:06:30;;;;;;;0.70;0.70;;;;;;;3.47;100.00;100811.22;5022922;28;20039;-77
2023/03/04 08:08:58;;;;;;;1.10;1.00;;;;;;;3.51;100.00;100804.34;5022872;28;20124;-77
2023/03/04 08:11:24;;;;;;;1.25;1.02;;;;;;;3.56;100.00;100804.47;5023596;28;20116;-76
2023/03/04 08:13:49;;;;;;;1.33;1.10;;;;;;;3.60;100.00;100809.81;5023549;28;20084;-76
2023/03/04 08:16:17;;;;;;;1.00;0.77;;;;;;;3.61;100.00;100792.44;5023516;28;20034;-76
2023/03/04 08:18:47;;;;;;;0.98;0.90;;;;;;;3.61;100.00;100797.66;5022631;28;20069;-76
2023/03/04 08:21:15;;;;;;;0.80;0.80;;;;;;;3.64;100.00;100805.56;5007036;28;20495;-76
2023/03/04 08:23:41;;;;;;;0.70;0.70;;;;;;;3.72;100.00;100799.72;5021625;28;20037;-76
2023/03/04 08:26:13;;;;;;;0.93;0.65;;;;;;;3.86;100.00;100796.56;5022430;28;20034;-77
2023/03/04 08:28:38;;;;;;;1.33;0.90;;;;;;;3.79;100.00;100794.63;5018899;28;20690;-77
2023/03/04 08:31:04;;;;;;;0.93;0.82;;;;;;;3.81;100.00;100799.06;5022259;28;20037;-77
2023/03/04 08:33:31;;;;;;;1.10;1.00;;;;;;;3.81;100.00;100790.34;5022770;28;20033;-77
2023/03/04 08:35:56;;;;;;;0.95;0.80;;;;;;;3.85;100.00;100806.13;5016273;28;20026;-76
2023/03/04 08:38:21;;;;;;;1.35;1.10;;;;;;;3.88;100.00;100793.16;5022243;28;20411;-76
2023/03/04 08:40:52;;;;;;;0.60;0.60;;;;;;;3.89;100.00;100784.47;5023213;28;20041;-76
2023/03/04 08:43:17;;;;;;;0.70;0.70;;;;;;;3.93;100.00;100788.94;5023688;28;20510;-76
2023/03/04 08:45:42;;;;;;;0.80;0.80;;;;;;;4.02;100.00;100787.38;5022626;28;20042;-76
2023/03/04 08:48:07;;;;;;;1.00;0.73;;;;;;;4.10;100.00;100788.44;5023141;28;20053;-76
2023/03/04 08:50:34;;;;;;;1.00;0.90;;;;;;;3.98;100.00;100790.75;5016650;28;20038;-76
2023/03/04 08:52:59;;;;;;;0.93;0.80;;;;;;;4.04;100.00;100793.53;5023604;28;20040;-76
2023/03/04 08:55:25;;;;;;;0.70;0.70;;;;;;;4.11;100.00;100790.22;5023234;28;20415;-76
2023/03/04 08:57:50;;;;;;;0.80;0.75;;;;;;;4.08;100.00;100782.31;5020711;28;20512;-77
2023/03/04 09:00:16;;;;;;;0.70;0.68;;;;;;;4.12;100.00;100792.00;5021760;28;20464;-76
2023/03/04 09:02:41;;;;;;;0.60;0.60;;;;;;;4.07;100.00;100783.16;5021590;28;20496;-77
2023/03/04 09:05:07;;;;;;;0.65;0.65;;;;;;;4.08;100.00;100792.75;5021702;28;20034;-76
2023/03/04 09:07:32;;;;;;;1.55;1.15;;;;;;;4.06;100.00;100783.97;5021465;28;20040;-76
2023/03/04 09:09:58;;;;;;;1.45;1.17;;;;;;;4.18;100.00;100786.91;5023380;28;20084;-76
2023/03/04 09:12:23;;;;;;;1.65;1.20;;;;;;;4.15;100.00;100787.72;5021035;28;20088;-76
2023/03/04 09:14:49;;;;;;;2.05;1.25;;;;;;;4.14;100.00;100792.91;5023179;28;20078;-76
2023/03/04 09:17:14;;;;;;;1.83;1.45;;;;;;;4.28;100.00;100788.88;5020802;28;20030;-76
2023/03/04 09:19:39;;;;;;;1.55;1.13;;;;;;;4.16;100.00;100788.59;5023533;28;20075;-76
2023/03/04 09:22:05;;;;;;;1.88;1.35;;;;;;;4.14;100.00;100790.31;5020666;28;20116;-76
2023/03/04 09:24:30;;;;;;;1.73;1.25;;;;;;;4.16;100.00;100778.13;5023761;28;20025;-76
2023/03/04 09:26:55;;;;;;;1.55;1.17;;;;;;;4.18;100.00;100779.06;5019413;28;20051;-76
2023/03/04 09:29:21;;;;;;;1.48;1.20;;;;;;;4.19;100.00;100775.59;5019833;28;20116;-76
2023/03/04 09:31:46;;;;;;;1.58;1.13;;;;;;;4.23;100.00;100777.44;5023993;28;20033;-76
2023/03/04 09:34:12;;;;;;;1.08;0.90;;;;;;;4.30;100.00;100771.53;5015991;28;20451;-76
2023/03/04 09:36:38;;;;;;;1.13;0.90;;;;;;;4.32;100.00;100779.38;5023341;28;20057;-76
2023/03/04 09:39:04;;;;;;;1.42;1.13;;;;;;;4.43;100.00;100763.94;5023297;28;20037;-76
2023/03/04 09:41:36;;;;;;;1.52;1.00;;;;;;;4.44;100.00;100778.78;5020410;28;20411;-76
2023/03/04 09:44:11;;;;;;;1.55;1.35;;;;;;;4.45;100.00;100767.47;5023532;28;20033;-76
2023/03/04 09:46:39;;;;;;;1.15;1.05;;;;;;;4.51;100.00;100772.88;5019117;28;20030;-76
2023/03/04 09:49:05;;;;;;;1.10;0.90;;;;;;;4.47;100.00;100765.78;5022780;28;20052;-76
2023/03/04 09:51:39;;;;;;;1.55;1.10;;;;;;;4.58;100.00;100767.81;5019766;28;20034;-76
2023/03/04 09:54:07;;;;;;;0.95;0.85;;;;;;;4.53;100.00;100765.91;5016632;28;20042;-76
2023/03/04 09:56:36;;;;;;;1.38;1.08;;;;;;;4.51;100.00;100759.78;5020866;28;20080;-76
2023/03/04 09:59:24;;;;;;;1.60;1.00;;;;;;;4.51;100.00;100762.41;5021463;28;20091;-76
2023/03/04 10:01:55;;;;;;;1.20;1.10;;;;;;;4.63;100.00;100757.44;5017555;28;20040;-76
2023/03/04 10:05:05;;;;;;;1.27;1.10;;;;;;;4.58;100.00;100762.59;5022920;28;20037;-76
2023/03/04 10:07:37;;;;;;;3.13;2.92;;;;;;;4.56;100.00;100742.47;5020375;28;20041;-76
2023/03/04 10:10:12;;;;;;;3.63;2.30;;;;;;;4.55;100.00;100745.94;5020596;28;20067;-76
2023/03/04 10:12:42;;;;;;;2.90;2.25;;;;;;;4.59;100.00;100742.53;5020925;28;20400;-76
2023/03/04 10:15:30;;;;;;;4.43;2.50;;;;;;;4.57;100.00;100755.56;5022412;28;20034;-77
2023/03/04 10:18:11;;;;;;;3.58;2.50;;;;;;;4.63;100.00;100736.50;5020165;28;20037;-76
2023/03/04 10:21:26;;;;;;;4.22;2.47;;;;;;;4.83;100.00;100743.03;5019406;28;20041;-76
2023/03/04 10:23:53;;;;;;;2.58;1.85;;;;;;;4.82;100.00;100745.63;5020660;28;20496;-76
2023/03/04 10:26:20;;;;;;;2.85;2.13;;;;;;;4.81;100.00;100749.97;5018449;28;20049;-76
2023/03/04 10:28:46;;;;;;;3.05;2.20;;;;;;;4.82;100.00;100741.28;5027477;28;20034;-76
2023/03/04 10:31:18;;;;;;;3.40;2.53;;;;;;;4.88;100.00;100748.38;5022796;28;20044;-76
2023/03/04 10:33:43;;;;;;;2.70;2.08;;;;;;;4.77;100.00;100740.31;5020488;28;20049;-76
2023/03/04 10:36:26;;;;;;;3.30;2.25;;;;;;;4.78;100.00;100735.97;5030707;22;20046;-72
2023/03/04 10:38:56;;;;;;;3.10;2.15;;;;;;;4.80;100.00;100737.75;4983020;28;20051;-72
2023/03/04 10:41:24;;;;;;;3.22;2.92;;;;;;;4.78;100.00;100731.59;4983732;28;20042;-72
2023/03/04 10:44:08;;;;;;;4.80;4.45;;;;;;;4.88;100.00;100724.84;4981513;28;20035;-72
2023/03/04 10:46:38;;;;;;;3.58;3.17;;;;;;;5.00;100.00;100721.56;4983338;28;20034;-72
2023/03/04 10:49:04;;;;;;;2.58;1.85;;;;;;;5.12;100.00;100724.44;4980285;28;20454;-72
2023/03/04 10:51:30;;;;;;;2.83;2.05;;;;;;;5.08;100.00;100737.41;4986406;28;20117;-72
2023/03/04 10:54:19;;;;;;;2.53;1.85;;;;;;;5.02;100.00;100727.72;4983275;28;20089;-72
2023/03/04 10:56:54;;;;;;;1.85;1.52;;;;;;;5.11;100.00;100713.94;4983549;28;20038;-72
2023/03/04 10:59:31;;;;;;;2.42;1.95;;;;;;;5.27;100.00;100721.22;4980890;28;20120;-72
2023/03/04 11:01:57;;;;;;;3.33;3.03;;;;;;;5.34;100.00;100722.22;4982695;28;20092;-72
2023/03/04 11:04:24;;;;;;;2.95;2.13;;;;;;;5.33;100.00;100713.47;4986855;28;20026;-72
2023/03/04 11:06:50;;;;;;;2.50;2.05;;;;;;;5.41;100.00;100711.88;4987454;28;20117;-72
2023/03/04 11:09:24;;;;;;;3.00;2.65;;;;;;;5.59;100.00;100720.91;4982281;28;20121;-72
2023/03/04 11:11:52;;;;;;;2.95;2.75;;;;;;;5.59;100.00;100706.09;4984423;28;20475;-72
2023/03/04 11:14:27;;;;;;;2.80;2.40;;;;;;;5.69;100.00;100723.72;4992402;28;20033;-72
2023/03/04 11:17:01;;;;;;;7.13;6.72;;;;;;;5.66;100.00;100712.31;4985920;28;20069;-72
2023/03/04 11:19:34;;;;;;;3.40;3.17;;;;;;;5.63;100.00;100710.53;4983198;28;20042;-72
2023/03/04 11:22:00;;;;;;;2.20;1.70;;;;;;;5.69;100.00;100713.25;4984365;28;20073;-72
2023/03/04 11:24:29;;;;;;;2.13;1.75;;;;;;;5.52;100.00;100725.16;4987087;28;20038;-73